createdAt,value
2019-02-22T00:01:15.684Z,23.33
2019-02-22T00:03:44.587Z,22.70
2019-02-22T00:06:13.423Z,21.93
2019-02-22T00:08:42.287Z,23.17
2019-02-22T00:11:11.891Z,21.03
2019-02-22T00:13:40.767Z,20.87
2019-02-22T00:16:09.661Z,22.20
2019-02-22T00:18:38.515Z,21.47
2019-02-22T00:21:07.368Z,20.40
2019-02-22T00:23:36.262Z,20.63
2019-02-22T00:26:05.668Z,22.30
2019-02-22T00:28:34.552Z,20.27
2019-02-22T00:31:03.421Z,22.98
2019-02-22T00:33:32.295Z,21.30
2019-02-22T00:36:01.186Z,22.50
2019-02-22T00:38:30.026Z,22.57
2019-02-22T00:40:58.885Z,21.00
2019-02-22T00:43:27.761Z,18.90
2019-02-22T00:45:56.657Z,22.40
2019-02-22T00:48:25.481Z,20.88
2019-02-22T00:50:54.344Z,19.70
2019-02-22T00:53:23.955Z,18.50
2019-02-22T00:55:52.807Z,19.70
2019-02-22T00:58:21.666Z,17.77
2019-02-22T01:00:50.668Z,17.57
2019-02-22T01:03:19.534Z,20.47
2019-02-22T01:05:48.407Z,22.63
2019-02-22T01:08:17.264Z,19.03
2019-02-22T01:10:46.124Z,19.07
2019-02-22T01:13:14.989Z,19.23
2019-02-22T01:15:47.023Z,19.70
2019-02-22T01:18:15.883Z,23.93
2019-02-22T01:20:53.975Z,21.70
2019-02-22T01:23:13.611Z,20.07
2019-02-22T01:25:42.485Z,20.83
2019-02-22T01:28:11.345Z,22.63
2019-02-22T01:30:40.938Z,20.17
2019-02-22T01:33:09.794Z,20.07
2019-02-22T01:35:38.657Z,22.80
2019-02-22T01:38:07.518Z,21.37
2019-02-22T01:40:43.680Z,23.77
2019-02-22T01:43:05.236Z,23.10
2019-02-22T01:45:34.103Z,21.70
2019-02-22T01:48:02.961Z,22.40
2019-02-22T01:50:31.871Z,19.40
2019-02-22T01:53:01.417Z,23.10
2019-02-22T01:55:30.295Z,21.67
2019-02-22T01:58:02.224Z,22.17
2019-02-22T02:00:31.139Z,23.33
2019-02-22T02:03:00.338Z,22.10
2019-02-22T02:05:31.597Z,21.33
2019-02-22T02:08:02.014Z,23.92
2019-02-22T02:10:32.004Z,23.95
2019-02-22T02:13:01.534Z,23.20
2019-02-22T02:15:31.396Z,22.07
2019-02-22T02:18:01.050Z,24.00
2019-02-22T02:20:30.991Z,24.83
2019-02-22T02:23:01.702Z,23.30
2019-02-22T02:25:31.885Z,21.93
2019-02-22T02:28:01.528Z,23.60
2019-02-22T02:30:32.056Z,22.10
2019-02-22T02:33:02.171Z,25.02
2019-02-22T02:35:33.602Z,21.03
2019-02-22T02:38:03.777Z,23.98
2019-02-22T02:40:34.697Z,22.17
2019-02-22T02:43:06.181Z,25.20
2019-02-22T02:45:36.109Z,22.57
2019-02-22T02:48:05.452Z,23.00
2019-02-22T02:50:35.264Z,22.70
2019-02-22T02:53:04.218Z,22.30
2019-02-22T02:55:33.214Z,23.27
2019-02-22T02:58:02.261Z,21.60
2019-02-22T03:00:31.924Z,23.27
2019-02-22T03:03:01.538Z,25.75
2019-02-22T03:05:35.968Z,26.00
2019-02-22T03:08:05.555Z,23.90
2019-02-22T03:10:34.440Z,22.67
2019-02-22T03:13:03.429Z,26.50
2019-02-22T03:15:32.329Z,22.37
2019-02-22T03:18:02.155Z,21.13
2019-02-22T03:20:30.874Z,22.53
2019-02-22T03:22:59.740Z,25.03
2019-02-22T03:25:28.920Z,23.77
2019-02-22T03:28:00.398Z,21.53
2019-02-22T03:30:29.406Z,24.47
2019-02-22T03:32:58.184Z,22.83
2019-02-22T03:35:27.170Z,20.83
2019-02-22T03:37:55.988Z,20.60
2019-02-22T03:40:24.820Z,23.63
2019-02-22T03:42:53.878Z,23.30
2019-02-22T03:45:23.537Z,24.20
2019-02-22T03:47:52.494Z,25.48
2019-02-22T03:50:21.488Z,23.70
2019-02-22T03:52:52.219Z,22.87
2019-02-22T03:55:21.966Z,23.97
2019-02-22T03:57:50.893Z,23.20
2019-02-22T04:00:19.837Z,24.33
2019-02-22T04:02:48.826Z,22.87
2019-02-22T04:05:17.672Z,21.57
2019-02-22T04:07:47.401Z,24.90
2019-02-22T04:10:16.738Z,26.48
2019-02-22T04:12:45.780Z,21.60
2019-02-22T04:15:15.390Z,20.97
2019-02-22T04:17:44.276Z,24.23
2019-02-22T04:20:13.935Z,25.17
2019-02-22T04:22:44.366Z,23.07
2019-02-22T04:25:11.811Z,23.97
2019-02-22T04:27:40.660Z,23.77
2019-02-22T04:30:10.307Z,22.80
2019-02-22T04:32:39.197Z,22.77
2019-02-22T04:35:08.082Z,19.73
2019-02-22T04:37:36.961Z,21.40
2019-02-22T04:40:05.852Z,24.30
2019-02-22T04:42:34.779Z,23.10
2019-02-22T04:45:03.660Z,27.00
2019-02-22T04:47:32.535Z,25.07
2019-02-22T04:50:01.418Z,22.00
2019-02-22T04:52:30.357Z,22.33
2019-02-22T04:54:59.227Z,20.60
2019-02-22T04:57:28.128Z,23.43
2019-02-22T04:59:57.019Z,23.93
2019-02-22T05:02:25.942Z,27.05
2019-02-22T05:04:55.546Z,22.53
2019-02-22T05:07:24.413Z,24.08
2019-02-22T05:09:53.306Z,24.83
2019-02-22T05:12:22.204Z,24.85
2019-02-22T05:14:51.144Z,21.07
2019-02-22T05:17:19.968Z,22.00
2019-02-22T05:19:48.855Z,20.60
2019-02-22T05:22:17.739Z,25.00
2019-02-22T05:24:46.614Z,19.03
2019-02-22T05:27:15.462Z,24.10
2019-02-22T05:29:44.647Z,19.17
2019-02-22T05:32:14.281Z,23.33
2019-02-22T05:34:43.234Z,26.50
2019-02-22T05:37:12.132Z,27.20
2019-02-22T05:39:41.069Z,25.33
2019-02-22T05:42:09.976Z,23.70
2019-02-22T05:44:38.888Z,22.23
2019-02-22T05:47:07.715Z,23.33
2019-02-22T05:49:37.305Z,25.90
2019-02-22T05:52:06.924Z,22.87
2019-02-22T05:54:36.563Z,33.45
2019-02-22T05:57:06.134Z,25.60
2019-02-22T05:59:35.036Z,21.73
2019-02-22T06:02:04.640Z,22.60
2019-02-22T06:04:33.552Z,30.75
2019-02-22T06:07:02.409Z,28.30
2019-02-22T06:09:31.279Z,27.13
2019-02-22T06:12:00.140Z,31.05
2019-02-22T06:14:29.038Z,29.57
2019-02-22T06:16:57.881Z,29.97
2019-02-22T06:19:26.773Z,29.77
2019-02-22T06:21:55.629Z,24.43
2019-02-22T06:24:24.503Z,31.63
2019-02-22T06:26:53.346Z,27.07
2019-02-22T06:29:22.220Z,26.60
2019-02-22T06:31:51.818Z,25.20
2019-02-22T06:34:20.725Z,28.93
2019-02-22T06:37:00.847Z,33.53
2019-02-22T06:39:19.205Z,31.63
2019-02-22T06:41:48.836Z,34.20
2019-02-22T06:44:18.425Z,36.88
2019-02-22T06:46:48.058Z,34.07
2019-02-22T06:49:16.943Z,37.20
2019-02-22T06:51:45.809Z,27.63
2019-02-22T06:54:15.411Z,33.90
2019-02-22T06:56:45.025Z,42.25
2019-02-22T06:59:13.914Z,40.88
2019-02-22T07:01:42.800Z,36.07
2019-02-22T07:04:12.421Z,34.70
2019-02-22T07:06:42.035Z,39.17
2019-02-22T07:09:10.928Z,42.57
2019-02-22T07:11:39.882Z,38.90
2019-02-22T07:14:08.782Z,34.33
2019-02-22T07:16:38.400Z,38.40
2019-02-22T07:19:07.276Z,40.17
2019-02-22T07:21:44.041Z,42.03
2019-02-22T07:24:05.031Z,40.00
2019-02-22T07:26:33.905Z,42.00
2019-02-22T07:29:02.800Z,39.57
2019-02-22T07:31:32.402Z,40.47
2019-02-22T07:34:01.382Z,45.30
2019-02-22T07:36:30.182Z,43.03
2019-02-22T07:38:59.084Z,40.00
2019-02-22T07:41:27.966Z,38.70
2019-02-22T07:43:56.841Z,40.30
2019-02-22T07:46:25.700Z,44.60
2019-02-22T07:48:55.320Z,46.80
2019-02-22T07:51:24.232Z,44.40
2019-02-22T07:53:53.092Z,47.17
2019-02-22T07:56:21.998Z,41.53
2019-02-22T07:58:50.881Z,44.30
2019-02-22T08:01:19.824Z,47.97
2019-02-22T08:03:48.706Z,44.73
2019-02-22T08:06:17.609Z,44.73
2019-02-22T08:08:47.959Z,46.67
2019-02-22T08:11:15.346Z,45.37
2019-02-22T08:13:44.265Z,46.27
2019-02-22T08:16:13.504Z,44.67
2019-02-22T08:18:43.114Z,42.80
2019-02-22T08:21:12.022Z,47.60
2019-02-22T08:23:41.602Z,45.23
2019-02-22T08:26:11.213Z,41.00
2019-02-22T08:28:40.833Z,46.80
2019-02-22T08:31:09.724Z,46.33
2019-02-22T08:33:38.604Z,44.97
2019-02-22T08:36:07.490Z,41.50
2019-02-22T08:38:37.077Z,42.20
2019-02-22T08:41:06.682Z,43.13
2019-02-22T08:43:35.599Z,43.20
2019-02-22T08:46:04.632Z,49.20
2019-02-22T08:48:37.147Z,47.20
2019-02-22T08:51:06.008Z,42.73
2019-02-22T08:53:34.936Z,42.17
2019-02-22T08:56:03.842Z,41.27
2019-02-22T08:58:32.741Z,48.03
2019-02-22T09:01:01.708Z,41.97
2019-02-22T09:03:30.631Z,41.23
2019-02-22T09:05:59.480Z,41.47
2019-02-22T09:08:28.360Z,42.60
2019-02-22T09:11:00.344Z,41.97
2019-02-22T09:13:26.154Z,40.63
2019-02-22T09:15:55.025Z,35.20
2019-02-22T09:18:23.901Z,41.57
2019-02-22T09:20:52.766Z,39.07
2019-02-22T09:23:21.638Z,39.77
2019-02-22T09:25:50.492Z,38.17
2019-02-22T09:28:19.406Z,39.10
2019-02-22T09:30:48.564Z,37.23
2019-02-22T09:33:17.502Z,39.07
2019-02-22T09:35:46.377Z,35.43
2019-02-22T09:38:15.276Z,32.13
2019-02-22T09:40:44.199Z,38.83
2019-02-22T09:43:13.060Z,34.23
2019-02-22T09:45:41.942Z,34.60
2019-02-22T09:48:10.880Z,35.70
2019-02-22T09:50:40.526Z,33.60
2019-02-22T09:53:09.384Z,33.03
2019-02-22T09:55:39.004Z,32.10
2019-02-22T09:58:07.892Z,34.50
2019-02-22T10:00:36.760Z,29.53
2019-02-22T10:03:06.372Z,32.10
2019-02-22T10:05:35.980Z,34.30
2019-02-22T10:08:05.578Z,30.87
2019-02-22T10:10:34.437Z,31.33
2019-02-22T10:13:03.307Z,27.60
2019-02-22T10:15:32.168Z,30.27
2019-02-22T10:18:01.054Z,25.77
2019-02-22T10:20:30.672Z,25.90
2019-02-22T10:22:59.530Z,24.37
2019-02-22T10:25:29.198Z,23.83
2019-02-22T10:27:58.129Z,20.52
2019-02-22T10:30:27.013Z,18.23
2019-02-22T10:32:55.892Z,19.30
2019-02-22T10:35:24.869Z,16.07
2019-02-22T10:37:53.723Z,14.67
2019-02-22T10:40:22.581Z,14.43
2019-02-22T10:42:52.212Z,15.63
2019-02-22T10:45:21.818Z,15.77
2019-02-22T10:47:50.674Z,14.73
2019-02-22T10:50:19.568Z,16.33
2019-02-22T10:52:49.204Z,14.47
2019-02-22T10:55:18.179Z,14.67
2019-02-22T10:57:47.882Z,14.93
2019-02-22T11:00:16.844Z,15.03
2019-02-22T11:02:45.980Z,15.57
2019-02-22T11:05:15.598Z,13.60
2019-02-22T11:07:44.513Z,14.85
2019-02-22T11:10:13.431Z,12.20
2019-02-22T11:12:42.342Z,14.20
2019-02-22T11:15:11.434Z,14.30
2019-02-22T11:17:41.586Z,14.83
2019-02-22T11:20:10.477Z,15.38
2019-02-22T11:22:39.359Z,13.30
2019-02-22T11:25:08.409Z,12.80
2019-02-22T11:27:37.306Z,12.90
2019-02-22T11:30:06.182Z,14.37
2019-02-22T11:32:35.057Z,13.47
2019-02-22T11:35:03.942Z,12.33
2019-02-22T11:37:32.990Z,12.07
2019-02-22T11:40:01.872Z,13.50
2019-02-22T11:42:30.728Z,12.90
2019-02-22T11:44:59.614Z,14.02
2019-02-22T11:47:28.480Z,12.17
2019-02-22T11:49:57.372Z,13.03
2019-02-22T11:52:26.248Z,13.90
2019-02-22T11:54:55.123Z,15.70
2019-02-22T11:57:24.730Z,12.13
2019-02-22T11:59:54.344Z,13.07
2019-02-22T12:02:23.268Z,12.35
2019-02-22T12:04:52.144Z,12.80
2019-02-22T12:07:21.029Z,10.77
2019-02-22T12:09:50.768Z,10.13
2019-02-22T12:12:20.181Z,9.80
2019-02-22T12:14:52.152Z,11.00
2019-02-22T12:17:19.164Z,11.93
2019-02-22T12:19:48.027Z,10.73
2019-02-22T12:22:17.700Z,10.70
2019-02-22T12:24:46.582Z,8.80
2019-02-22T12:27:15.445Z,8.83
2019-02-22T12:29:44.330Z,8.47
2019-02-22T12:32:13.233Z,7.00
2019-02-22T12:34:42.234Z,8.03
2019-02-22T12:37:11.132Z,8.57
2019-02-22T12:39:40.030Z,14.27
2019-02-22T12:42:08.886Z,7.57
2019-02-22T12:44:37.752Z,6.17
2019-02-22T12:47:07.353Z,8.80
2019-02-22T12:49:36.231Z,7.63
2019-02-22T12:52:05.841Z,6.28
2019-02-22T12:54:35.445Z,7.20
2019-02-22T12:57:04.374Z,7.10
2019-02-22T12:59:33.253Z,8.07
2019-02-22T13:02:02.220Z,4.80
2019-02-22T13:04:31.713Z,5.30
2019-02-22T13:07:00.747Z,5.87
2019-02-22T13:09:36.128Z,6.37
2019-02-22T13:11:57.760Z,5.30
2019-02-22T13:14:26.589Z,6.27
2019-02-22T13:16:56.200Z,6.97
2019-02-22T13:19:25.111Z,6.33
2019-02-22T13:21:54.113Z,7.47
2019-02-22T13:24:22.866Z,7.47
2019-02-22T13:26:51.737Z,11.93
2019-02-22T13:29:20.578Z,6.00
2019-02-22T13:31:49.452Z,9.75
2019-02-22T13:34:18.360Z,7.27
2019-02-22T13:36:47.250Z,6.50
2019-02-22T13:39:16.083Z,5.93
2019-02-22T13:41:45.041Z,7.93
2019-02-22T13:44:13.912Z,7.87
2019-02-22T13:46:42.772Z,6.37
2019-02-22T13:49:12.363Z,5.73
2019-02-22T13:51:41.401Z,7.37
2019-02-22T13:54:10.535Z,7.97
2019-02-22T13:56:39.398Z,6.80
2019-02-22T13:59:08.359Z,8.00
2019-02-22T14:01:37.256Z,8.27
2019-02-22T14:04:06.158Z,9.17
2019-02-22T14:06:35.019Z,4.97
2019-02-22T14:09:04.635Z,5.87
2019-02-22T14:11:33.500Z,5.93
2019-02-22T14:14:02.666Z,6.73
2019-02-22T14:16:31.243Z,6.00
2019-02-22T14:19:00.125Z,5.62
2019-02-22T14:21:28.989Z,5.67
2019-02-22T14:23:57.920Z,6.13
2019-02-22T14:26:26.726Z,7.97
2019-02-22T14:28:55.628Z,5.13
2019-02-22T14:31:25.246Z,5.62
2019-02-22T14:33:54.891Z,6.03
2019-02-22T14:36:24.468Z,4.97
2019-02-22T14:38:53.928Z,5.00
2019-02-22T14:41:22.668Z,6.00
2019-02-22T14:43:51.534Z,4.10
2019-02-22T14:46:26.061Z,5.67
2019-02-22T14:48:50.223Z,6.55
2019-02-22T14:51:19.126Z,6.03
2019-02-22T14:53:47.985Z,5.85
2019-02-22T14:56:16.884Z,5.90
2019-02-22T14:58:46.142Z,5.77
2019-02-22T15:01:14.804Z,8.23
2019-02-22T15:03:43.666Z,6.07
2019-02-22T15:06:12.520Z,6.63
2019-02-22T15:08:42.119Z,7.73
2019-02-22T15:11:11.131Z,5.43
2019-02-22T15:13:40.022Z,6.20
2019-02-22T15:16:11.435Z,5.73
2019-02-22T15:18:40.249Z,5.40
2019-02-22T15:21:09.896Z,5.80
2019-02-22T15:23:38.885Z,5.63
2019-02-22T15:26:07.649Z,5.27
2019-02-22T15:28:37.256Z,6.63
2019-02-22T15:31:06.145Z,5.80
2019-02-22T15:33:35.783Z,6.20
2019-02-22T15:36:05.374Z,5.13
2019-02-22T15:38:34.720Z,5.80
2019-02-22T15:41:03.896Z,6.47
2019-02-22T15:43:32.774Z,6.55
2019-02-22T15:46:11.806Z,6.20
2019-02-22T15:48:30.623Z,8.57
2019-02-22T15:51:00.230Z,7.30
2019-02-22T15:53:29.213Z,6.70
2019-02-22T15:55:58.825Z,6.13
2019-02-22T15:58:28.487Z,6.82
2019-02-22T16:00:57.321Z,6.37
2019-02-22T16:03:26.966Z,7.33
2019-02-22T16:05:55.838Z,6.67
2019-02-22T16:08:24.715Z,10.10
2019-02-22T16:10:53.585Z,9.60
2019-02-22T16:13:22.481Z,7.70
2019-02-22T16:15:51.403Z,7.85
2019-02-22T16:18:20.312Z,10.13
2019-02-22T16:20:49.204Z,9.97
2019-02-22T16:23:18.071Z,9.57
2019-02-22T16:25:47.074Z,9.20
2019-02-22T16:28:15.961Z,6.20
2019-02-22T16:30:44.731Z,11.60
2019-02-22T16:33:14.347Z,9.63
2019-02-22T16:35:43.280Z,9.77
2019-02-22T16:38:12.133Z,12.07
2019-02-22T16:40:41.022Z,9.63
2019-02-22T16:43:09.964Z,9.53
2019-02-22T16:45:39.021Z,8.83
2019-02-22T16:48:07.904Z,8.27
2019-02-22T16:50:37.551Z,8.25
2019-02-22T16:53:06.487Z,8.55
2019-02-22T16:55:35.339Z,9.70
2019-02-22T16:58:04.187Z,8.88
2019-02-22T17:00:33.074Z,6.93
2019-02-22T17:03:02.628Z,8.50
2019-02-22T17:05:31.500Z,8.70
2019-02-22T17:08:00.335Z,8.73
2019-02-22T17:10:29.641Z,9.73
2019-02-22T17:12:59.187Z,6.80
2019-02-22T17:15:28.071Z,8.40
2019-02-22T17:17:56.963Z,8.37
2019-02-22T17:20:25.838Z,9.00
2019-02-22T17:22:54.697Z,9.13
2019-02-22T17:25:24.341Z,9.03
2019-02-22T17:27:53.229Z,7.97
2019-02-22T17:30:22.121Z,8.50
2019-02-22T17:32:51.174Z,10.10
2019-02-22T17:35:20.086Z,8.87
2019-02-22T17:37:48.974Z,8.07
2019-02-22T17:40:18.759Z,8.30
2019-02-22T17:42:47.627Z,8.73
2019-02-22T17:45:16.567Z,9.73
2019-02-22T17:47:45.418Z,10.37
2019-02-22T17:50:14.284Z,8.73
2019-02-22T17:52:43.211Z,8.43
2019-02-22T17:55:12.074Z,9.47
2019-02-22T17:57:40.902Z,8.90
2019-02-22T18:00:11.927Z,9.40
2019-02-22T18:02:40.780Z,8.77
2019-02-22T18:05:09.631Z,11.82
2019-02-22T18:07:38.484Z,12.23
2019-02-22T18:10:07.349Z,8.93
2019-02-22T18:12:36.207Z,15.02
2019-02-22T18:15:05.095Z,13.17
2019-02-22T18:17:33.950Z,11.77
2019-02-22T18:20:02.802Z,9.93
2019-02-22T18:22:31.630Z,9.90
2019-02-22T18:25:01.242Z,10.33
2019-02-22T18:27:30.829Z,8.07
2019-02-22T18:29:59.701Z,11.85
2019-02-22T18:32:28.546Z,9.27
2019-02-22T18:34:57.427Z,8.23
2019-02-22T18:37:26.250Z,9.27
2019-02-22T18:39:55.098Z,9.87
2019-02-22T18:42:24.683Z,8.90
2019-02-22T18:44:53.556Z,10.07
2019-02-22T18:47:22.436Z,9.38
2019-02-22T18:49:51.260Z,11.67
2019-02-22T18:52:20.103Z,8.90
2019-02-22T18:54:48.937Z,10.17
2019-02-22T18:57:17.806Z,9.60
2019-02-22T18:59:46.653Z,10.52
2019-02-22T19:02:15.519Z,10.93
2019-02-22T19:04:45.112Z,9.33
2019-02-22T19:07:14.027Z,9.00
2019-02-22T19:09:42.849Z,9.50
2019-02-22T19:12:11.719Z,9.23
2019-02-22T19:14:40.575Z,8.77
2019-02-22T19:17:10.171Z,9.10
2019-02-22T19:19:39.026Z,10.27
2019-02-22T19:22:07.885Z,11.50
2019-02-22T19:24:36.765Z,9.87
2019-02-22T19:27:06.352Z,10.97
2019-02-22T19:29:35.252Z,11.75
2019-02-22T19:32:04.865Z,11.63
2019-02-22T19:34:34.461Z,10.90
2019-02-22T19:37:03.319Z,10.83
2019-02-22T19:39:32.167Z,10.47
2019-02-22T19:42:01.012Z,13.07
2019-02-22T19:44:30.508Z,11.43
2019-02-22T19:46:59.334Z,11.23
2019-02-22T19:49:28.943Z,11.80
2019-02-22T19:51:58.544Z,10.30
2019-02-22T19:54:27.447Z,11.93
2019-02-22T19:56:57.053Z,11.27
2019-02-22T19:59:25.951Z,10.07
2019-02-22T20:01:54.773Z,10.90
2019-02-22T20:04:23.630Z,10.97
2019-02-22T20:06:52.488Z,11.07
2019-02-22T20:09:21.427Z,9.67
2019-02-22T20:11:50.239Z,11.53
2019-02-22T20:14:19.099Z,12.13
2019-02-22T20:16:47.955Z,13.30
2019-02-22T20:19:17.603Z,10.77
2019-02-22T20:21:47.307Z,10.50
2019-02-22T20:24:16.035Z,12.63
2019-02-22T20:26:44.920Z,12.80
2019-02-22T20:29:13.791Z,11.47
2019-02-22T20:31:42.643Z,12.27
2019-02-22T20:34:11.507Z,14.37
2019-02-22T20:36:40.396Z,13.37
2019-02-22T20:39:09.296Z,15.17
2019-02-22T20:41:38.139Z,15.57
2019-02-22T20:44:07.129Z,13.10
2019-02-22T20:46:35.984Z,15.27
2019-02-22T20:49:05.581Z,15.03
2019-02-22T20:51:35.195Z,13.63
2019-02-22T20:54:04.099Z,12.73
2019-02-22T20:56:33.666Z,12.17
2019-02-22T20:59:02.784Z,14.67
2019-02-22T21:01:31.670Z,13.00
2019-02-22T21:04:00.487Z,14.90
2019-02-22T21:06:29.347Z,12.93
2019-02-22T21:08:58.201Z,15.57
2019-02-22T21:11:27.095Z,13.13
2019-02-22T21:13:55.905Z,12.70
2019-02-22T21:16:25.506Z,14.57
2019-02-22T21:18:54.382Z,14.27
2019-02-22T21:21:23.230Z,15.27
2019-02-22T21:23:52.164Z,13.47
2019-02-22T21:26:21.684Z,15.60
2019-02-22T21:28:50.542Z,14.77
2019-02-22T21:31:19.399Z,16.70
2019-02-22T21:33:48.259Z,12.47
2019-02-22T21:36:17.920Z,11.23
2019-02-22T21:38:47.078Z,12.45
2019-02-22T21:41:16.433Z,10.87
2019-02-22T21:43:44.484Z,11.07
2019-02-22T21:46:13.337Z,11.43
2019-02-22T21:48:42.965Z,10.37
2019-02-22T21:51:12.528Z,12.07
2019-02-22T21:53:42.183Z,13.13
2019-02-22T21:56:11.746Z,9.70
2019-02-22T21:58:40.600Z,10.52
2019-02-22T22:01:09.512Z,10.77
2019-02-22T22:03:38.337Z,10.60
2019-02-22T22:06:07.970Z,9.90
2019-02-22T22:08:36.819Z,10.77
2019-02-22T22:11:05.731Z,12.27
2019-02-22T22:13:35.334Z,12.73
2019-02-22T22:16:04.784Z,13.52
2019-02-22T22:18:38.777Z,15.43
2019-02-22T22:21:02.529Z,12.33
2019-02-22T22:23:31.400Z,17.10
2019-02-22T22:26:00.289Z,13.60
2019-02-22T22:28:29.188Z,12.40
2019-02-22T22:30:58.089Z,12.60
2019-02-22T22:33:26.964Z,13.00
2019-02-22T22:35:55.836Z,15.00
2019-02-22T22:38:25.453Z,13.13
2019-02-22T22:40:55.150Z,13.98
2019-02-22T22:43:24.047Z,13.13
2019-02-22T22:45:53.019Z,16.80
2019-02-22T22:48:21.858Z,14.77
2019-02-22T22:50:50.719Z,16.73
2019-02-22T22:53:20.351Z,18.57
2019-02-22T22:55:49.243Z,15.97
2019-02-22T22:58:18.154Z,16.20
2019-02-22T23:00:49.823Z,14.30
2019-02-22T23:03:18.721Z,16.70
2019-02-22T23:05:47.662Z,17.37
2019-02-22T23:08:16.486Z,13.60
2019-02-22T23:10:45.342Z,13.67
2019-02-22T23:13:14.278Z,13.47
2019-02-22T23:15:43.147Z,12.80
2019-02-22T23:18:12.013Z,9.87
2019-02-22T23:20:40.902Z,10.50
2019-02-22T23:23:09.759Z,10.53
2019-02-22T23:25:38.641Z,9.67
2019-02-22T23:28:08.487Z,9.33
2019-02-22T23:30:37.320Z,8.93
2019-02-22T23:33:06.163Z,8.55
2019-02-22T23:35:35.751Z,8.03
2019-02-22T23:38:05.197Z,7.97
2019-02-22T23:40:34.046Z,7.73
2019-02-22T23:43:03.660Z,8.83
2019-02-22T23:45:33.376Z,9.00
2019-02-22T23:48:03.874Z,8.73
2019-02-22T23:50:33.490Z,9.70
2019-02-22T23:53:02.955Z,8.00
2019-02-22T23:55:31.833Z,8.30
2019-02-22T23:58:00.709Z,8.03
